sensor_id;sensor_type;location;lat;lon;timestamp;temperature;humidity
67005;HTU21D;53920;51.094;5.902;2023-01-16T00:01:51;6.63;73.03
67005;HTU21D;53920;51.094;5.902;2023-01-16T00:04:17;6.67;72.94
67005;HTU21D;53920;51.094;5.902;2023-01-16T00:06:43;6.73;72.83
67005;HTU21D;53920;51.094;5.902;2023-01-16T00:09:13;6.84;72.62
67005;HTU21D;53920;51.094;5.902;2023-01-16T00:11:39;6.86;72.71
67005;HTU21D;53920;51.094;5.902;2023-01-16T00:14:06;6.94;72.33
67005;HTU21D;53920;51.094;5.902;2023-01-16T00:16:32;6.97;72.38
67005;HTU21D;53920;51.094;5.902;2023-01-16T00:18:58;7.00;72.22
67005;HTU21D;53920;51.094;5.902;2023-01-16T00:21:25;7.03;72.12
67005;HTU21D;53920;51.094;5.902;2023-01-16T00:23:58;7.11;71.72
67005;HTU21D;53920;51.094;5.902;2023-01-16T00:26:26;7.04;71.97
67005;HTU21D;53920;51.094;5.902;2023-01-16T00:28:56;7.05;71.88
67005;HTU21D;53920;51.094;5.902;2023-01-16T00:31:22;7.07;71.67
67005;HTU21D;53920;51.094;5.902;2023-01-16T00:33:49;7.17;71.03
67005;HTU21D;53920;51.094;5.902;2023-01-16T00:36:15;7.07;71.35
67005;HTU21D;53920;51.094;5.902;2023-01-16T00:38:45;7.02;71.45
67005;HTU21D;53920;51.094;5.902;2023-01-16T00:41:11;7.01;71.33
67005;HTU21D;53920;51.094;5.902;2023-01-16T00:43:38;6.89;71.62
67005;HTU21D;53920;51.094;5.902;2023-01-16T00:46:07;6.84;71.83
67005;HTU21D;53920;51.094;5.902;2023-01-16T00:48:33;6.85;71.79
67005;HTU21D;53920;51.094;5.902;2023-01-16T00:50:59;6.89;71.55
67005;HTU21D;53920;51.094;5.902;2023-01-16T00:53:25;6.79;71.87
67005;HTU21D;53920;51.094;5.902;2023-01-16T00:55:52;6.85;71.75
67005;HTU21D;53920;51.094;5.902;2023-01-16T00:58:18;6.82;71.80
67005;HTU21D;53920;51.094;5.902;2023-01-16T01:00:44;6.75;71.85
67005;HTU21D;53920;51.094;5.902;2023-01-16T01:03:11;6.70;71.99
67005;HTU21D;53920;51.094;5.902;2023-01-16T01:05:37;6.61;72.35
67005;HTU21D;53920;51.094;5.902;2023-01-16T01:08:07;6.60;72.42
67005;HTU21D;53920;51.094;5.902;2023-01-16T01:10:39;6.59;72.30
67005;HTU21D;53920;51.094;5.902;2023-01-16T01:13:05;6.49;72.66
67005;HTU21D;53920;51.094;5.902;2023-01-16T01:15:31;6.41;72.84
67005;HTU21D;53920;51.094;5.902;2023-01-16T01:17:57;6.42;72.67
67005;HTU21D;53920;51.094;5.902;2023-01-16T01:20:23;6.45;72.75
67005;HTU21D;53920;51.094;5.902;2023-01-16T01:22:49;6.43;72.80
67005;HTU21D;53920;51.094;5.902;2023-01-16T01:25:16;6.45;72.77
67005;HTU21D;53920;51.094;5.902;2023-01-16T01:27:43;6.45;72.86
67005;HTU21D;53920;51.094;5.902;2023-01-16T01:30:13;6.50;72.62
67005;HTU21D;53920;51.094;5.902;2023-01-16T01:32:38;6.51;72.66
67005;HTU21D;53920;51.094;5.902;2023-01-16T01:35:06;6.39;72.92
67005;HTU21D;53920;51.094;5.902;2023-01-16T01:37:35;6.40;72.95
67005;HTU21D;53920;51.094;5.902;2023-01-16T01:40:03;6.36;72.91
67005;HTU21D;53920;51.094;5.902;2023-01-16T01:42:30;6.33;72.95
67005;HTU21D;53920;51.094;5.902;2023-01-16T01:45:26;6.33;73.05
67005;HTU21D;53920;51.094;5.902;2023-01-16T01:48:20;6.27;73.19
67005;HTU21D;53920;51.094;5.902;2023-01-16T01:51:01;6.29;73.15
67005;HTU21D;53920;51.094;5.902;2023-01-16T01:53:49;6.22;73.46
67005;HTU21D;53920;51.094;5.902;2023-01-16T01:56:38;6.12;73.73
67005;HTU21D;53920;51.094;5.902;2023-01-16T01:59:24;6.02;74.02
67005;HTU21D;53920;51.094;5.902;2023-01-16T02:01:54;5.94;74.14
67005;HTU21D;53920;51.094;5.902;2023-01-16T02:04:25;5.82;74.46
67005;HTU21D;53920;51.094;5.902;2023-01-16T02:07:01;5.77;74.68
67005;HTU21D;53920;51.094;5.902;2023-01-16T02:09:31;5.74;74.96
67005;HTU21D;53920;51.094;5.902;2023-01-16T02:12:04;5.71;75.07
67005;HTU21D;53920;51.094;5.902;2023-01-16T02:14:36;5.75;75.01
67005;HTU21D;53920;51.094;5.902;2023-01-16T02:17:12;5.72;75.24
67005;HTU21D;53920;51.094;5.902;2023-01-16T02:31:32;5.61;75.60
67005;HTU21D;53920;51.094;5.902;2023-01-16T02:34:38;5.61;75.62
67005;HTU21D;53920;51.094;5.902;2023-01-16T02:39:47;5.56;75.79
67005;HTU21D;53920;51.094;5.902;2023-01-16T02:42:42;5.57;75.92
67005;HTU21D;53920;51.094;5.902;2023-01-16T02:45:29;5.60;75.83
67005;HTU21D;53920;51.094;5.902;2023-01-16T02:48:21;5.61;75.85
67005;HTU21D;53920;51.094;5.902;2023-01-16T02:54:14;5.56;75.88
67005;HTU21D;53920;51.094;5.902;2023-01-16T02:56:59;5.54;76.03
67005;HTU21D;53920;51.094;5.902;2023-01-16T02:59:29;5.52;75.87
67005;HTU21D;53920;51.094;5.902;2023-01-16T03:01:56;5.59;75.80
67005;HTU21D;53920;51.094;5.902;2023-01-16T03:16:10;5.64;75.54
67005;HTU21D;53920;51.094;5.902;2023-01-16T03:21:41;5.74;75.21
67005;HTU21D;53920;51.094;5.902;2023-01-16T03:30:29;5.72;75.23
67005;HTU21D;53920;51.094;5.902;2023-01-16T03:35:57;5.69;75.45
67005;HTU21D;53920;51.094;5.902;2023-01-16T03:38:28;5.66;75.49
67005;HTU21D;53920;51.094;5.902;2023-01-16T03:40:59;5.64;75.47
67005;HTU21D;53920;51.094;5.902;2023-01-16T03:43:32;5.64;75.61
67005;HTU21D;53920;51.094;5.902;2023-01-16T03:46:07;5.67;75.47
67005;HTU21D;53920;51.094;5.902;2023-01-16T03:48:55;5.67;75.53
67005;HTU21D;53920;51.094;5.902;2023-01-16T03:51:30;5.69;75.47
67005;HTU21D;53920;51.094;5.902;2023-01-16T03:59:45;5.76;75.26
67005;HTU21D;53920;51.094;5.902;2023-01-16T04:05:02;5.83;74.90
67005;HTU21D;53920;51.094;5.902;2023-01-16T04:10:19;5.97;74.45
67005;HTU21D;53920;51.094;5.902;2023-01-16T04:12:56;5.95;74.44
67005;HTU21D;53920;51.094;5.902;2023-01-16T04:15:26;5.97;74.35
67005;HTU21D;53920;51.094;5.902;2023-01-16T04:17:55;5.99;74.17
67005;HTU21D;53920;51.094;5.902;2023-01-16T04:20:23;5.99;74.15
67005;HTU21D;53920;51.094;5.902;2023-01-16T04:22:51;6.01;73.87
67005;HTU21D;53920;51.094;5.902;2023-01-16T04:25:19;6.04;73.68
67005;HTU21D;53920;51.094;5.902;2023-01-16T04:27:46;6.07;73.48
67005;HTU21D;53920;51.094;5.902;2023-01-16T04:30:13;6.09;73.41
67005;HTU21D;53920;51.094;5.902;2023-01-16T04:32:42;6.12;73.32
67005;HTU21D;53920;51.094;5.902;2023-01-16T04:35:09;6.14;73.09
67005;HTU21D;53920;51.094;5.902;2023-01-16T04:37:36;6.19;73.03
67005;HTU21D;53920;51.094;5.902;2023-01-16T04:40:05;6.23;72.74
67005;HTU21D;53920;51.094;5.902;2023-01-16T04:42:34;6.22;72.70
67005;HTU21D;53920;51.094;5.902;2023-01-16T04:45:05;6.26;72.36
67005;HTU21D;53920;51.094;5.902;2023-01-16T04:47:31;6.26;72.20
67005;HTU21D;53920;51.094;5.902;2023-01-16T04:49:57;6.30;72.27
67005;HTU21D;53920;51.094;5.902;2023-01-16T04:52:23;6.36;71.83
67005;HTU21D;53920;51.094;5.902;2023-01-16T04:54:48;6.40;71.74
67005;HTU21D;53920;51.094;5.902;2023-01-16T04:57:14;6.38;71.76
67005;HTU21D;53920;51.094;5.902;2023-01-16T04:59:40;6.40;71.58
67005;HTU21D;53920;51.094;5.902;2023-01-16T05:02:06;6.45;71.31
67005;HTU21D;53920;51.094;5.902;2023-01-16T05:04:33;6.48;71.33
67005;HTU21D;53920;51.094;5.902;2023-01-16T05:07:00;6.55;71.03
67005;HTU21D;53920;51.094;5.902;2023-01-16T05:09:26;6.54;71.10
67005;HTU21D;53920;51.094;5.902;2023-01-16T05:11:52;6.56;71.10
67005;HTU21D;53920;51.094;5.902;2023-01-16T05:14:18;6.60;71.02
67005;HTU21D;53920;51.094;5.902;2023-01-16T05:16:44;6.61;71.09
67005;HTU21D;53920;51.094;5.902;2023-01-16T05:19:09;6.58;71.03
67005;HTU21D;53920;51.094;5.902;2023-01-16T05:21:36;6.60;70.73
67005;HTU21D;53920;51.094;5.902;2023-01-16T05:24:03;6.54;70.87
67005;HTU21D;53920;51.094;5.902;2023-01-16T05:26:29;6.51;71.06
67005;HTU21D;53920;51.094;5.902;2023-01-16T05:28:56;6.51;71.16
67005;HTU21D;53920;51.094;5.902;2023-01-16T05:31:23;6.51;71.08
67005;HTU21D;53920;51.094;5.902;2023-01-16T05:33:49;6.46;71.13
67005;HTU21D;53920;51.094;5.902;2023-01-16T05:36:15;6.51;71.09
67005;HTU21D;53920;51.094;5.902;2023-01-16T05:38:45;6.41;71.13
67005;HTU21D;53920;51.094;5.902;2023-01-16T05:41:13;6.33;71.22
67005;HTU21D;53920;51.094;5.902;2023-01-16T05:43:39;6.26;71.37
67005;HTU21D;53920;51.094;5.902;2023-01-16T05:46:05;6.24;71.46
67005;HTU21D;53920;51.094;5.902;2023-01-16T05:48:31;6.19;71.57
67005;HTU21D;53920;51.094;5.902;2023-01-16T05:51:00;6.15;71.83
67005;HTU21D;53920;51.094;5.902;2023-01-16T05:53:32;6.13;72.06
67005;HTU21D;53920;51.094;5.902;2023-01-16T05:55:58;6.14;72.01
67005;HTU21D;53920;51.094;5.902;2023-01-16T05:58:24;6.12;72.22
67005;HTU21D;53920;51.094;5.902;2023-01-16T06:00:53;6.19;72.19
67005;HTU21D;53920;51.094;5.902;2023-01-16T06:03:19;6.16;72.00
67005;HTU21D;53920;51.094;5.902;2023-01-16T06:05:46;6.14;72.23
67005;HTU21D;53920;51.094;5.902;2023-01-16T06:08:15;6.16;72.41
67005;HTU21D;53920;51.094;5.902;2023-01-16T06:10:44;6.23;72.47
67005;HTU21D;53920;51.094;5.902;2023-01-16T06:13:11;6.21;72.52
67005;HTU21D;53920;51.094;5.902;2023-01-16T06:15:37;6.22;72.45
67005;HTU21D;53920;51.094;5.902;2023-01-16T06:18:03;6.25;72.44
67005;HTU21D;53920;51.094;5.902;2023-01-16T06:20:30;6.24;72.55
67005;HTU21D;53920;51.094;5.902;2023-01-16T06:22:56;6.29;72.54
67005;HTU21D;53920;51.094;5.902;2023-01-16T06:25:22;6.24;72.58
67005;HTU21D;53920;51.094;5.902;2023-01-16T06:27:49;6.24;72.71
67005;HTU21D;53920;51.094;5.902;2023-01-16T06:30:17;6.21;72.68
67005;HTU21D;53920;51.094;5.902;2023-01-16T06:32:46;6.30;72.38
67005;HTU21D;53920;51.094;5.902;2023-01-16T06:35:13;6.38;72.08
67005;HTU21D;53920;51.094;5.902;2023-01-16T06:37:40;6.40;72.20
67005;HTU21D;53920;51.094;5.902;2023-01-16T06:40:06;6.40;72.26
67005;HTU21D;53920;51.094;5.902;2023-01-16T06:42:33;6.29;72.87
67005;HTU21D;53920;51.094;5.902;2023-01-16T06:44:59;6.17;73.92
67005;HTU21D;53920;51.094;5.902;2023-01-16T06:47:25;6.10;74.49
67005;HTU21D;53920;51.094;5.902;2023-01-16T06:49:53;6.04;75.23
67005;HTU21D;53920;51.094;5.902;2023-01-16T06:52:19;5.98;75.88
67005;HTU21D;53920;51.094;5.902;2023-01-16T06:54:45;5.94;76.40
67005;HTU21D;53920;51.094;5.902;2023-01-16T06:57:11;5.87;77.04
67005;HTU21D;53920;51.094;5.902;2023-01-16T06:59:39;5.77;77.51
67005;HTU21D;53920;51.094;5.902;2023-01-16T07:02:09;5.76;77.94
67005;HTU21D;53920;51.094;5.902;2023-01-16T07:04:35;5.65;78.67
67005;HTU21D;53920;51.094;5.902;2023-01-16T07:07:01;5.70;79.01
67005;HTU21D;53920;51.094;5.902;2023-01-16T07:09:30;5.62;79.44
67005;HTU21D;53920;51.094;5.902;2023-01-16T07:11:57;5.64;79.71
67005;HTU21D;53920;51.094;5.902;2023-01-16T07:14:23;5.65;79.98
67005;HTU21D;53920;51.094;5.902;2023-01-16T07:17:10;5.67;80.08
67005;HTU21D;53920;51.094;5.902;2023-01-16T07:19:56;5.64;80.40
67005;HTU21D;53920;51.094;5.902;2023-01-16T07:22:40;5.66;80.43
67005;HTU21D;53920;51.094;5.902;2023-01-16T07:25:14;5.65;80.51
67005;HTU21D;53920;51.094;5.902;2023-01-16T07:27:45;5.62;80.73
67005;HTU21D;53920;51.094;5.902;2023-01-16T07:30:15;5.66;80.91
67005;HTU21D;53920;51.094;5.902;2023-01-16T07:32:45;5.62;80.99
67005;HTU21D;53920;51.094;5.902;2023-01-16T07:35:12;5.63;81.01
67005;HTU21D;53920;51.094;5.902;2023-01-16T07:37:38;5.57;81.41
67005;HTU21D;53920;51.094;5.902;2023-01-16T07:40:05;5.64;81.11
67005;HTU21D;53920;51.094;5.902;2023-01-16T07:42:32;5.72;80.68
67005;HTU21D;53920;51.094;5.902;2023-01-16T07:44:59;5.81;80.20
67005;HTU21D;53920;51.094;5.902;2023-01-16T07:47:25;5.81;80.36
67005;HTU21D;53920;51.094;5.902;2023-01-16T07:49:51;5.83;79.94
67005;HTU21D;53920;51.094;5.902;2023-01-16T07:52:25;5.89;79.49
67005;HTU21D;53920;51.094;5.902;2023-01-16T07:54:58;5.96;79.17
67005;HTU21D;53920;51.094;5.902;2023-01-16T07:57:40;6.04;78.56
67005;HTU21D;53920;51.094;5.902;2023-01-16T08:00:08;6.11;78.01
67005;HTU21D;53920;51.094;5.902;2023-01-16T08:02:40;6.17;77.25
67005;HTU21D;53920;51.094;5.902;2023-01-16T08:05:07;6.17;77.26
67005;HTU21D;53920;51.094;5.902;2023-01-16T08:07:33;6.30;76.52
67005;HTU21D;53920;51.094;5.902;2023-01-16T08:10:05;6.36;76.23
67005;HTU21D;53920;51.094;5.902;2023-01-16T08:12:31;6.36;76.00
67005;HTU21D;53920;51.094;5.902;2023-01-16T08:14:58;6.39;75.50
67005;HTU21D;53920;51.094;5.902;2023-01-16T08:17:24;6.43;75.12
67005;HTU21D;53920;51.094;5.902;2023-01-16T08:19:54;6.45;74.99
67005;HTU21D;53920;51.094;5.902;2023-01-16T08:22:20;6.44;74.51
67005;HTU21D;53920;51.094;5.902;2023-01-16T08:24:46;6.43;74.18
67005;HTU21D;53920;51.094;5.902;2023-01-16T08:27:12;6.30;74.26
67005;HTU21D;53920;51.094;5.902;2023-01-16T08:29:38;6.36;74.14
67005;HTU21D;53920;51.094;5.902;2023-01-16T08:32:04;6.29;74.51
67005;HTU21D;53920;51.094;5.902;2023-01-16T08:34:30;6.19;74.95
67005;HTU21D;53920;51.094;5.902;2023-01-16T08:36:56;6.08;75.05
67005;HTU21D;53920;51.094;5.902;2023-01-16T08:39:22;5.99;75.73
67005;HTU21D;53920;51.094;5.902;2023-01-16T08:41:51;5.97;76.05
67005;HTU21D;53920;51.094;5.902;2023-01-16T08:44:37;5.87;76.15
67005;HTU21D;53920;51.094;5.902;2023-01-16T08:47:25;6.05;75.34
67005;HTU21D;53920;51.094;5.902;2023-01-16T08:50:18;5.93;74.95
67005;HTU21D;53920;51.094;5.902;2023-01-16T08:53:04;6.00;75.14
67005;HTU21D;53920;51.094;5.902;2023-01-16T08:55:30;6.09;74.73
67005;HTU21D;53920;51.094;5.902;2023-01-16T08:57:56;6.19;73.64
67005;HTU21D;53920;51.094;5.902;2023-01-16T09:00:26;6.21;73.81
67005;HTU21D;53920;51.094;5.902;2023-01-16T09:02:55;6.39;72.39
67005;HTU21D;53920;51.094;5.902;2023-01-16T09:05:24;6.46;72.13
67005;HTU21D;53920;51.094;5.902;2023-01-16T09:07:50;6.50;71.91
67005;HTU21D;53920;51.094;5.902;2023-01-16T09:10:18;6.53;71.18
67005;HTU21D;53920;51.094;5.902;2023-01-16T09:12:44;6.52;70.28
67005;HTU21D;53920;51.094;5.902;2023-01-16T09:15:32;6.50;70.91
67005;HTU21D;53920;51.094;5.902;2023-01-16T09:17:58;6.60;70.30
67005;HTU21D;53920;51.094;5.902;2023-01-16T09:20:24;6.61;69.87
67005;HTU21D;53920;51.094;5.902;2023-01-16T09:23:02;6.70;69.49
67005;HTU21D;53920;51.094;5.902;2023-01-16T09:25:33;6.69;69.94
67005;HTU21D;53920;51.094;5.902;2023-01-16T09:28:03;6.65;70.16
67005;HTU21D;53920;51.094;5.902;2023-01-16T09:30:30;6.73;69.75
67005;HTU21D;53920;51.094;5.902;2023-01-16T09:32:59;6.66;68.52
67005;HTU21D;53920;51.094;5.902;2023-01-16T09:35:30;6.65;69.36
67005;HTU21D;53920;51.094;5.902;2023-01-16T09:37:56;6.79;69.13
67005;HTU21D;53920;51.094;5.902;2023-01-16T09:40:23;6.74;69.36
67005;HTU21D;53920;51.094;5.902;2023-01-16T09:45:57;6.66;69.52
67005;HTU21D;53920;51.094;5.902;2023-01-16T09:48:34;6.71;69.62
67005;HTU21D;53920;51.094;5.902;2023-01-16T09:51:20;6.64;69.08
67005;HTU21D;53920;51.094;5.902;2023-01-16T09:53:55;6.74;69.91
67005;HTU21D;53920;51.094;5.902;2023-01-16T09:56:47;6.84;69.57
67005;HTU21D;53920;51.094;5.902;2023-01-16T09:59:37;6.83;69.36
67005;HTU21D;53920;51.094;5.902;2023-01-16T10:02:27;6.96;69.35
67005;HTU21D;53920;51.094;5.902;2023-01-16T10:04:56;6.99;69.36
67005;HTU21D;53920;51.094;5.902;2023-01-16T10:07:54;7.16;69.22
67005;HTU21D;53920;51.094;5.902;2023-01-16T10:10:46;7.35;68.69
67005;HTU21D;53920;51.094;5.902;2023-01-16T10:32:38;7.81;67.69
67005;HTU21D;53920;51.094;5.902;2023-01-16T10:37:44;8.01;66.96
67005;HTU21D;53920;51.094;5.902;2023-01-16T10:40:18;8.01;67.46
67005;HTU21D;53920;51.094;5.902;2023-01-16T10:42:50;7.93;67.73
67005;HTU21D;53920;51.094;5.902;2023-01-16T10:45:40;8.20;67.29
67005;HTU21D;53920;51.094;5.902;2023-01-16T10:48:28;8.51;66.57
67005;HTU21D;53920;51.094;5.902;2023-01-16T10:51:25;8.70;65.62
67005;HTU21D;53920;51.094;5.902;2023-01-16T10:53:51;8.64;65.56
67005;HTU21D;53920;51.094;5.902;2023-01-16T10:56:17;8.63;65.27
67005;HTU21D;53920;51.094;5.902;2023-01-16T10:58:43;8.38;65.82
67005;HTU21D;53920;51.094;5.902;2023-01-16T11:01:17;8.52;65.62
67005;HTU21D;53920;51.094;5.902;2023-01-16T11:03:48;8.48;65.40
67005;HTU21D;53920;51.094;5.902;2023-01-16T11:06:19;8.41;65.61
67005;HTU21D;53920;51.094;5.902;2023-01-16T11:08:49;8.53;65.35
67005;HTU21D;53920;51.094;5.902;2023-01-16T11:11:15;8.49;65.55
67005;HTU21D;53920;51.094;5.902;2023-01-16T11:14:16;8.43;64.88
67005;HTU21D;53920;51.094;5.902;2023-01-16T11:17:36;8.47;65.72
67005;HTU21D;53920;51.094;5.902;2023-01-16T11:20:29;8.71;65.38
67005;HTU21D;53920;51.094;5.902;2023-01-16T11:22:57;8.57;65.69
67005;HTU21D;53920;51.094;5.902;2023-01-16T11:25:28;8.61;65.66
67005;HTU21D;53920;51.094;5.902;2023-01-16T11:27:58;8.59;65.53
67005;HTU21D;53920;51.094;5.902;2023-01-16T11:30:40;8.58;65.85
67005;HTU21D;53920;51.094;5.902;2023-01-16T11:33:21;8.60;65.62
67005;HTU21D;53920;51.094;5.902;2023-01-16T11:36:08;8.63;65.69
67005;HTU21D;53920;51.094;5.902;2023-01-16T11:38:42;8.56;65.20
67005;HTU21D;53920;51.094;5.902;2023-01-16T11:41:11;8.51;65.69
67005;HTU21D;53920;51.094;5.902;2023-01-16T11:43:40;8.51;65.96
67005;HTU21D;53920;51.094;5.902;2023-01-16T11:48:59;8.46;65.92
67005;HTU21D;53920;51.094;5.902;2023-01-16T11:51:32;8.45;66.15
67005;HTU21D;53920;51.094;5.902;2023-01-16T11:54:00;8.38;66.07
67005;HTU21D;53920;51.094;5.902;2023-01-16T11:56:56;8.41;66.32
67005;HTU21D;53920;51.094;5.902;2023-01-16T11:59:50;8.38;66.17
67005;HTU21D;53920;51.094;5.902;2023-01-16T12:05:55;8.41;66.10
67005;HTU21D;53920;51.094;5.902;2023-01-16T12:08:55;8.45;66.07
67005;HTU21D;53920;51.094;5.902;2023-01-16T12:11:54;8.49;65.99
67005;HTU21D;53920;51.094;5.902;2023-01-16T12:14:38;8.58;65.95
67005;HTU21D;53920;51.094;5.902;2023-01-16T12:36:49;9.44;63.18
67005;HTU21D;53920;51.094;5.902;2023-01-16T12:45:44;8.82;64.42
67005;HTU21D;53920;51.094;5.902;2023-01-16T12:59:45;8.38;64.87
67005;HTU21D;53920;51.094;5.902;2023-01-16T13:05:11;8.28;65.05
67005;HTU21D;53920;51.094;5.902;2023-01-16T13:10:46;8.04;67.29
67005;HTU21D;53920;51.094;5.902;2023-01-16T13:13:56;8.00;68.11
67005;HTU21D;53920;51.094;5.902;2023-01-16T13:16:54;7.82;68.63
67005;HTU21D;53920;51.094;5.902;2023-01-16T13:19:27;7.83;68.40
67005;HTU21D;53920;51.094;5.902;2023-01-16T13:22:23;7.81;68.30
67005;HTU21D;53920;51.094;5.902;2023-01-16T13:24:59;7.96;67.72
67005;HTU21D;53920;51.094;5.902;2023-01-16T13:27:43;7.83;68.26
67005;HTU21D;53920;51.094;5.902;2023-01-16T13:30:18;7.70;68.96
67005;HTU21D;53920;51.094;5.902;2023-01-16T13:33:01;7.63;69.80
67005;HTU21D;53920;51.094;5.902;2023-01-16T13:39:23;7.47;70.55
67005;HTU21D;53920;51.094;5.902;2023-01-16T13:41:51;7.60;70.12
67005;HTU21D;53920;51.094;5.902;2023-01-16T13:44:36;7.70;69.59
67005;HTU21D;53920;51.094;5.902;2023-01-16T13:47:33;7.72;69.81
67005;HTU21D;53920;51.094;5.902;2023-01-16T13:50:27;7.68;70.99
67005;HTU21D;53920;51.094;5.902;2023-01-16T13:53:13;7.62;71.64
67005;HTU21D;53920;51.094;5.902;2023-01-16T13:55:40;7.61;71.98
67005;HTU21D;53920;51.094;5.902;2023-01-16T13:58:21;7.50;72.57
67005;HTU21D;53920;51.094;5.902;2023-01-16T14:01:02;7.46;73.23
67005;HTU21D;53920;51.094;5.902;2023-01-16T14:03:34;7.41;73.56
67005;HTU21D;53920;51.094;5.902;2023-01-16T14:09:11;7.27;74.45
67005;HTU21D;53920;51.094;5.902;2023-01-16T14:14:47;7.26;74.95
67005;HTU21D;53920;51.094;5.902;2023-01-16T14:20:42;7.03;75.25
67005;HTU21D;53920;51.094;5.902;2023-01-16T14:29:27;6.45;77.97
67005;HTU21D;53920;51.094;5.902;2023-01-16T14:32:02;6.42;77.92
67005;HTU21D;53920;51.094;5.902;2023-01-16T14:34:35;6.40;78.66
67005;HTU21D;53920;51.094;5.902;2023-01-16T14:37:05;6.38;79.12
67005;HTU21D;53920;51.094;5.902;2023-01-16T14:39:51;6.25;79.61
67005;HTU21D;53920;51.094;5.902;2023-01-16T14:48:05;6.04;80.40
67005;HTU21D;53920;51.094;5.902;2023-01-16T14:51:16;5.93;80.92
67005;HTU21D;53920;51.094;5.902;2023-01-16T14:57:30;5.90;80.59
67005;HTU21D;53920;51.094;5.902;2023-01-16T15:00:19;5.96;81.02
67005;HTU21D;53920;51.094;5.902;2023-01-16T15:03:22;6.00;81.14
67005;HTU21D;53920;51.094;5.902;2023-01-16T15:05:55;5.98;80.73
67005;HTU21D;53920;51.094;5.902;2023-01-16T15:10:53;5.94;80.49
67005;HTU21D;53920;51.094;5.902;2023-01-16T15:13:26;5.94;80.74
67005;HTU21D;53920;51.094;5.902;2023-01-16T15:16:18;5.89;81.20
67005;HTU21D;53920;51.094;5.902;2023-01-16T15:19:39;5.89;80.94
67005;HTU21D;53920;51.094;5.902;2023-01-16T15:22:45;5.89;81.24
67005;HTU21D;53920;51.094;5.902;2023-01-16T15:31:42;5.86;81.19
67005;HTU21D;53920;51.094;5.902;2023-01-16T15:36:42;5.91;81.31
67005;HTU21D;53920;51.094;5.902;2023-01-16T15:39:41;5.95;80.90
67005;HTU21D;53920;51.094;5.902;2023-01-16T15:50:58;6.07;80.30
67005;HTU21D;53920;51.094;5.902;2023-01-16T15:53:38;6.11;79.96
67005;HTU21D;53920;51.094;5.902;2023-01-16T15:58:54;6.16;80.10
67005;HTU21D;53920;51.094;5.902;2023-01-16T16:01:30;6.17;79.75
67005;HTU21D;53920;51.094;5.902;2023-01-16T16:04:03;6.17;80.01
67005;HTU21D;53920;51.094;5.902;2023-01-16T16:06:30;6.19;79.91
67005;HTU21D;53920;51.094;5.902;2023-01-16T16:09:00;6.21;79.98
67005;HTU21D;53920;51.094;5.902;2023-01-16T16:11:35;6.19;80.00
67005;HTU21D;53920;51.094;5.902;2023-01-16T16:14:31;6.26;79.68
67005;HTU21D;53920;51.094;5.902;2023-01-16T16:17:23;6.28;79.49
67005;HTU21D;53920;51.094;5.902;2023-01-16T16:20:32;6.27;79.40
67005;HTU21D;53920;51.094;5.902;2023-01-16T16:25:48;6.34;79.36
67005;HTU21D;53920;51.094;5.902;2023-01-16T16:28:24;6.37;79.16
67005;HTU21D;53920;51.094;5.902;2023-01-16T16:31:04;6.40;79.10
67005;HTU21D;53920;51.094;5.902;2023-01-16T16:33:33;6.43;78.95
67005;HTU21D;53920;51.094;5.902;2023-01-16T16:36:00;6.49;78.88
67005;HTU21D;53920;51.094;5.902;2023-01-16T16:46:29;6.54;78.47
67005;HTU21D;53920;51.094;5.902;2023-01-16T16:51:35;6.54;78.52
67005;HTU21D;53920;51.094;5.902;2023-01-16T16:54:13;6.57;78.57
67005;HTU21D;53920;51.094;5.902;2023-01-16T16:56:48;6.56;78.44
67005;HTU21D;53920;51.094;5.902;2023-01-16T16:59:21;6.63;78.44
67005;HTU21D;53920;51.094;5.902;2023-01-16T17:01:54;6.66;78.30
67005;HTU21D;53920;51.094;5.902;2023-01-16T17:04:26;6.61;78.18
67005;HTU21D;53920;51.094;5.902;2023-01-16T17:06:52;6.61;78.26
67005;HTU21D;53920;51.094;5.902;2023-01-16T17:09:18;6.66;78.43
67005;HTU21D;53920;51.094;5.902;2023-01-16T17:11:45;6.68;78.28
67005;HTU21D;53920;51.094;5.902;2023-01-16T17:14:12;6.68;78.18
67005;HTU21D;53920;51.094;5.902;2023-01-16T17:16:39;6.66;78.05
67005;HTU21D;53920;51.094;5.902;2023-01-16T17:19:22;6.66;78.22
67005;HTU21D;53920;51.094;5.902;2023-01-16T17:21:52;6.67;78.21
67005;HTU21D;53920;51.094;5.902;2023-01-16T17:24:20;6.66;78.14
67005;HTU21D;53920;51.094;5.902;2023-01-16T17:26:46;6.54;78.71
67005;HTU21D;53920;51.094;5.902;2023-01-16T17:29:14;6.33;79.46
67005;HTU21D;53920;51.094;5.902;2023-01-16T17:31:44;6.22;80.19
67005;HTU21D;53920;51.094;5.902;2023-01-16T17:34:15;6.13;80.74
67005;HTU21D;53920;51.094;5.902;2023-01-16T17:36:45;6.14;81.01
67005;HTU21D;53920;51.094;5.902;2023-01-16T17:39:12;6.07;81.40
67005;HTU21D;53920;51.094;5.902;2023-01-16T17:41:39;6.06;81.70
67005;HTU21D;53920;51.094;5.902;2023-01-16T17:44:16;6.07;81.75
67005;HTU21D;53920;51.094;5.902;2023-01-16T17:47:06;6.11;82.02
67005;HTU21D;53920;51.094;5.902;2023-01-16T17:49:33;6.11;82.07
67005;HTU21D;53920;51.094;5.902;2023-01-16T17:52:23;6.07;82.24
67005;HTU21D;53920;51.094;5.902;2023-01-16T17:54:50;6.11;82.52
67005;HTU21D;53920;51.094;5.902;2023-01-16T17:57:35;6.21;82.55
67005;HTU21D;53920;51.094;5.902;2023-01-16T18:00:02;6.23;82.62
67005;HTU21D;53920;51.094;5.902;2023-01-16T18:02:30;6.34;82.66
67005;HTU21D;53920;51.094;5.902;2023-01-16T18:05:01;6.40;82.55
67005;HTU21D;53920;51.094;5.902;2023-01-16T18:07:27;6.39;82.52
67005;HTU21D;53920;51.094;5.902;2023-01-16T18:09:53;6.37;82.51
67005;HTU21D;53920;51.094;5.902;2023-01-16T18:12:22;6.34;82.46
67005;HTU21D;53920;51.094;5.902;2023-01-16T18:15:08;6.30;82.63
67005;HTU21D;53920;51.094;5.902;2023-01-16T18:17:55;6.17;82.67
67005;HTU21D;53920;51.094;5.902;2023-01-16T18:20:24;6.11;82.64
67005;HTU21D;53920;51.094;5.902;2023-01-16T18:22:51;6.06;82.61
67005;HTU21D;53920;51.094;5.902;2023-01-16T18:25:17;5.98;82.61
67005;HTU21D;53920;51.094;5.902;2023-01-16T18:27:46;5.84;82.44
67005;HTU21D;53920;51.094;5.902;2023-01-16T18:30:12;5.69;82.41
67005;HTU21D;53920;51.094;5.902;2023-01-16T18:32:38;5.61;82.32
67005;HTU21D;53920;51.094;5.902;2023-01-16T18:35:06;5.50;82.23
67005;HTU21D;53920;51.094;5.902;2023-01-16T18:37:36;5.32;82.29
67005;HTU21D;53920;51.094;5.902;2023-01-16T18:40:05;5.26;82.23
67005;HTU21D;53920;51.094;5.902;2023-01-16T18:42:52;5.23;82.13
67005;HTU21D;53920;51.094;5.902;2023-01-16T18:45:37;5.26;82.16
67005;HTU21D;53920;51.094;5.902;2023-01-16T18:48:22;5.32;82.26
67005;HTU21D;53920;51.094;5.902;2023-01-16T18:51:15;5.32;82.25
67005;HTU21D;53920;51.094;5.902;2023-01-16T18:54:19;5.30;82.39
67005;HTU21D;53920;51.094;5.902;2023-01-16T18:57:12;5.27;82.62
67005;HTU21D;53920;51.094;5.902;2023-01-16T18:59:57;5.27;82.71
67005;HTU21D;53920;51.094;5.902;2023-01-16T19:03:02;5.32;82.87
67005;HTU21D;53920;51.094;5.902;2023-01-16T19:05:28;5.37;82.72
67005;HTU21D;53920;51.094;5.902;2023-01-16T19:07:58;5.39;82.84
67005;HTU21D;53920;51.094;5.902;2023-01-16T19:10:24;5.42;82.92
67005;HTU21D;53920;51.094;5.902;2023-01-16T19:12:53;5.40;82.91
67005;HTU21D;53920;51.094;5.902;2023-01-16T19:15:23;5.42;82.97
67005;HTU21D;53920;51.094;5.902;2023-01-16T19:17:49;5.39;83.02
67005;HTU21D;53920;51.094;5.902;2023-01-16T19:20:16;5.55;82.48
67005;HTU21D;53920;51.094;5.902;2023-01-16T19:22:55;5.43;82.80